createdAt,value
2024-05-09T00:00:36.255Z,98992.00
2024-05-09T00:03:10.262Z,98993.44
2024-05-09T00:05:39.095Z,98995.09
2024-05-09T00:08:06.529Z,98994.84
2024-05-09T00:10:37.121Z,99017.38
2024-05-09T00:13:06.770Z,99022.25
2024-05-09T00:15:34.094Z,99035.97
2024-05-09T00:18:01.393Z,99045.91
2024-05-09T00:20:36.571Z,99055.84
2024-05-09T00:23:10.576Z,99057.78
2024-05-09T00:25:38.338Z,99071.63
2024-05-09T00:28:05.562Z,99097.22
2024-05-09T00:30:35.422Z,99100.00
2024-05-09T00:33:08.733Z,99134.97
2024-05-09T00:35:36.854Z,99143.19
2024-05-09T00:38:04.500Z,99147.81
2024-05-09T00:40:39.927Z,99154.81
2024-05-09T00:43:09.727Z,99117.47
2024-05-09T00:45:36.482Z,99127.69
2024-05-09T00:48:08.558Z,99129.94
2024-05-09T00:50:40.676Z,99139.72
2024-05-09T00:53:10.049Z,99152.56
2024-05-09T00:55:37.898Z,99142.78
2024-05-09T00:58:06.020Z,99118.47
2024-05-09T01:00:38.991Z,99117.22
2024-05-09T01:03:10.024Z,99119.88
2024-05-09T01:05:39.073Z,99122.66
2024-05-09T01:08:06.661Z,99117.75
2024-05-09T01:10:35.385Z,99125.31
2024-05-09T01:13:04.368Z,99130.78
2024-05-09T01:15:31.227Z,99134.38
2024-05-09T01:18:00.727Z,99137.63
2024-05-09T01:20:37.016Z,99138.31
2024-05-09T01:23:10.117Z,99118.19
2024-05-09T01:25:37.076Z,99133.69
2024-05-09T01:28:04.133Z,99133.84
2024-05-09T01:30:35.369Z,99131.88
2024-05-09T01:33:05.628Z,99129.22
2024-05-09T01:35:33.875Z,99120.41
2024-05-09T01:38:00.520Z,99115.66
2024-05-09T01:40:36.343Z,99110.88
2024-05-09T01:43:06.264Z,99100.25
2024-05-09T01:45:33.056Z,99106.56
2024-05-09T01:47:59.966Z,99096.91
2024-05-09T01:50:36.929Z,99096.22
2024-05-09T01:53:07.254Z,99095.94
2024-05-09T01:55:34.196Z,99093.56
2024-05-09T01:58:00.774Z,99084.34
2024-05-09T02:00:37.405Z,99082.81
2024-05-09T02:03:15.450Z,99060.88
2024-05-09T02:05:45.604Z,99066.19
2024-05-09T02:08:15.292Z,99063.41
2024-05-09T02:10:42.993Z,99050.53
2024-05-09T02:13:09.759Z,99054.03
2024-05-09T02:15:36.519Z,99044.53
2024-05-09T02:18:03.420Z,99021.19
2024-05-09T02:20:35.889Z,99019.91
2024-05-09T02:23:07.161Z,99020.63
2024-05-09T02:25:34.438Z,99015.03
2024-05-09T02:28:01.257Z,99008.34
2024-05-09T02:32:57.667Z,98987.38
2024-05-09T02:35:24.387Z,98981.78
2024-05-09T02:37:51.354Z,98974.78
2024-05-09T02:40:25.248Z,98970.75
2024-05-09T02:42:55.787Z,98955.81
2024-05-09T02:45:22.415Z,98941.69
2024-05-09T02:47:49.101Z,98941.22
2024-05-09T02:50:23.046Z,98919.00
2024-05-09T02:52:55.548Z,98904.19
2024-05-09T02:55:22.482Z,98911.06
2024-05-09T02:57:49.208Z,98912.91
2024-05-09T03:00:22.558Z,98921.72
2024-05-09T03:02:53.266Z,98919.09
2024-05-09T03:05:20.042Z,98899.66
2024-05-09T03:07:46.634Z,98890.16
2024-05-09T03:10:21.890Z,98876.75
2024-05-09T03:12:51.697Z,98865.88
2024-05-09T03:15:18.655Z,98848.28
2024-05-09T03:17:45.297Z,98825.38
2024-05-09T03:20:20.404Z,98796.34
2024-05-09T03:22:52.721Z,98776.22
2024-05-09T03:25:20.644Z,98756.66
2024-05-09T03:27:48.332Z,98742.16
2024-05-09T03:30:22.141Z,98738.84
2024-05-09T03:32:56.524Z,98721.09
2024-05-09T03:35:23.578Z,98707.53
2024-05-09T03:37:50.188Z,98684.75
2024-05-09T03:40:23.381Z,98678.06
2024-05-09T03:42:52.974Z,98667.84
2024-05-09T03:45:19.504Z,98655.56
2024-05-09T03:47:46.380Z,98652.91
2024-05-09T03:50:21.971Z,98653.91
2024-05-09T03:52:52.630Z,98654.59
2024-05-09T03:55:19.456Z,98653.91
2024-05-09T03:57:45.951Z,98659.72
2024-05-09T04:00:18.198Z,98657.81
2024-05-09T04:02:53.129Z,98654.88
2024-05-09T04:05:19.780Z,98646.91
2024-05-09T04:07:46.463Z,98650.25
2024-05-09T04:10:21.143Z,98651.94
2024-05-09T04:12:54.533Z,98637.97
2024-05-09T04:15:21.414Z,98630.72
2024-05-09T04:17:51.369Z,98634.56
2024-05-09T04:20:28.219Z,98630.56
2024-05-09T04:23:01.056Z,98624.97
2024-05-09T04:25:27.641Z,98629.13
2024-05-09T04:27:55.924Z,98630.50
2024-05-09T04:30:34.271Z,98616.22
2024-05-09T04:33:06.072Z,98616.94
2024-05-09T04:35:33.285Z,98617.03
2024-05-09T04:38:00.554Z,98614.59
2024-05-09T04:40:33.156Z,98609.28
2024-05-09T04:43:03.251Z,98602.50
2024-05-09T04:45:29.976Z,98605.28
2024-05-09T04:47:56.755Z,98614.25
2024-05-09T04:50:32.743Z,98624.41
2024-05-09T04:53:03.534Z,98622.13
2024-05-09T04:55:30.621Z,98640.25
2024-05-09T04:57:57.165Z,98658.56
2024-05-09T05:00:32.449Z,98669.78
2024-05-09T05:03:13.290Z,98698.84
2024-05-09T05:05:45.092Z,98707.69
2024-05-09T05:08:14.164Z,98728.78
2024-05-09T05:10:42.123Z,98757.38
2024-05-09T05:13:25.300Z,98802.72
2024-05-09T05:15:57.365Z,98844.38
2024-05-09T05:18:26.230Z,98866.63
2024-05-09T05:20:53.481Z,98911.44
2024-05-09T05:23:21.136Z,98947.88
2024-05-09T05:25:49.623Z,99007.19
2024-05-09T05:28:16.922Z,99056.72
2024-05-09T05:30:43.767Z,99093.50
2024-05-09T05:33:12.324Z,99137.56
2024-05-09T05:35:40.153Z,99196.41
2024-05-09T05:38:07.802Z,99243.19
2024-05-09T05:40:38.518Z,99305.41
2024-05-09T05:43:08.383Z,99327.47
2024-05-09T05:45:35.159Z,99345.97
2024-05-09T05:48:05.926Z,99365.09
2024-05-09T05:50:36.489Z,99366.59
2024-05-09T05:53:09.144Z,99351.25
2024-05-09T05:55:36.952Z,99358.13
2024-05-09T05:58:03.649Z,99344.31
2024-05-09T06:00:38.216Z,99298.59
2024-05-09T06:03:08.638Z,99191.16
2024-05-09T06:05:37.340Z,99137.88
2024-05-09T06:08:04.323Z,99038.34
2024-05-09T06:10:37.837Z,98884.25
2024-05-09T06:13:07.416Z,98749.63
2024-05-09T06:15:34.131Z,98614.25
2024-05-09T06:18:00.916Z,98428.03
2024-05-09T06:20:35.434Z,98193.78
2024-05-09T06:23:08.379Z,97714.22
2024-05-09T06:25:36.296Z,97510.25
2024-05-09T06:28:03.672Z,97302.09
2024-05-09T06:30:38.367Z,96855.97
2024-05-09T06:33:10.499Z,96682.84
2024-05-09T06:35:38.694Z,96324.72
2024-05-09T06:38:08.677Z,96166.41
2024-05-09T06:40:38.390Z,96143.28
2024-05-09T06:43:17.964Z,96015.41
2024-05-09T06:45:48.433Z,95595.38
2024-05-09T06:48:17.885Z,95473.97
2024-05-09T06:50:44.986Z,95488.72
2024-05-09T06:53:14.896Z,95237.25
2024-05-09T06:55:41.641Z,95112.34
2024-05-09T06:58:11.659Z,95036.13
2024-05-09T07:00:41.218Z,95056.69
2024-05-09T07:03:10.965Z,95044.72
2024-05-09T07:05:38.633Z,95034.22
2024-05-09T07:08:06.569Z,95037.09
2024-05-09T07:10:36.102Z,95004.72
2024-05-09T07:13:07.693Z,95028.00
2024-05-09T07:15:34.224Z,95094.13
2024-05-09T07:18:00.867Z,95150.56
2024-05-09T07:20:34.113Z,95230.75
2024-05-09T07:23:02.427Z,95239.84
2024-05-09T07:25:29.487Z,95248.03
2024-05-09T07:27:56.083Z,95241.41
2024-05-09T07:30:27.749Z,95259.06
2024-05-09T07:33:00.197Z,95233.19
2024-05-09T07:35:27.253Z,95233.97
2024-05-09T07:37:54.016Z,95441.44
2024-05-09T07:40:31.546Z,95540.97
2024-05-09T07:43:07.360Z,95560.06
2024-05-09T07:52:23.994Z,95957.56
2024-05-09T07:53:39.070Z,95927.59
2024-05-09T07:56:09.954Z,95939.25
2024-05-09T07:58:37.753Z,96044.50
2024-05-09T08:01:04.822Z,96394.47
2024-05-09T08:03:31.970Z,96409.50
2024-05-09T08:05:58.563Z,96594.69
2024-05-09T08:08:25.110Z,96593.63
2024-05-09T08:10:51.898Z,96457.78
2024-05-09T08:13:18.717Z,96393.22
2024-05-09T08:15:45.500Z,96500.09
2024-05-09T08:18:12.603Z,96628.09
2024-05-09T08:20:41.110Z,96635.19
2024-05-09T08:23:08.126Z,96785.06
2024-05-09T08:25:34.882Z,96935.06
2024-05-09T08:28:01.541Z,97000.59
2024-05-09T08:30:33.788Z,97036.25
2024-05-09T08:33:05.115Z,97050.56
2024-05-09T08:35:32.764Z,97061.19
2024-05-09T08:37:59.408Z,97060.91
2024-05-09T08:40:33.689Z,97064.50
2024-05-09T08:43:07.658Z,97068.78
2024-05-09T08:45:39.135Z,97056.09
2024-05-09T08:48:09.282Z,97081.72
2024-05-09T08:50:40.495Z,97059.59
2024-05-09T08:53:08.340Z,97070.47
2024-05-09T08:55:40.071Z,97060.09
2024-05-09T08:58:10.911Z,97057.13
2024-05-09T09:00:39.270Z,97078.94
2024-05-09T09:03:09.549Z,97073.69
2024-05-09T09:05:39.547Z,97058.13
2024-05-09T09:08:08.233Z,97043.19
2024-05-09T09:10:35.586Z,97037.09
2024-05-09T09:13:05.316Z,97044.97
2024-05-09T09:15:32.671Z,97063.09
2024-05-09T09:18:00.867Z,97057.41
2024-05-09T09:20:35.479Z,97067.19
2024-05-09T09:23:03.901Z,97070.94
2024-05-09T09:25:30.835Z,97072.63
2024-05-09T09:27:58.440Z,97054.69
2024-05-09T09:30:35.118Z,97079.69
2024-05-09T09:33:05.516Z,97094.72
2024-05-09T09:35:32.696Z,97085.28
2024-05-09T09:38:02.517Z,97065.50
2024-05-09T09:40:37.099Z,97052.72
2024-05-09T09:43:18.621Z,97006.75
2024-05-09T09:45:47.101Z,96984.34
2024-05-09T09:48:14.758Z,96994.34
2024-05-09T09:50:42.120Z,96977.03
2024-05-09T09:53:10.464Z,96924.31
2024-05-09T09:55:39.659Z,96884.00
2024-05-09T09:58:09.652Z,96882.03
2024-05-09T10:00:38.868Z,96860.44
2024-05-09T10:03:05.602Z,96849.47
2024-05-09T10:05:34.372Z,96827.50
2024-05-09T10:08:07.142Z,96820.81
2024-05-09T10:10:35.659Z,96845.25
2024-05-09T10:13:07.576Z,96885.31
2024-05-09T10:15:50.330Z,96930.00
2024-05-09T10:18:17.574Z,96977.97
2024-05-09T10:20:45.129Z,96992.03
2024-05-09T10:23:28.603Z,97004.59
2024-05-09T10:26:03.627Z,97023.91
2024-05-09T10:28:35.788Z,97048.09
2024-05-09T10:31:11.035Z,97056.47
2024-05-09T10:33:49.940Z,97062.06
2024-05-09T10:36:26.722Z,97077.09
2024-05-09T10:38:54.909Z,97073.84
2024-05-09T10:41:22.716Z,97062.50
2024-05-09T10:43:50.400Z,97057.59
2024-05-09T10:46:19.627Z,97061.44
2024-05-09T10:48:47.462Z,97051.47
2024-05-09T10:51:14.195Z,97065.16
2024-05-09T10:53:45.691Z,97077.38
2024-05-09T10:56:15.123Z,97080.63
2024-05-09T10:58:42.000Z,97073.81
2024-05-09T11:01:10.377Z,97073.00
2024-05-09T11:03:38.134Z,97069.28
2024-05-09T11:06:06.243Z,97076.75
2024-05-09T11:08:34.278Z,97070.13
2024-05-09T11:11:02.891Z,97079.78
2024-05-09T11:13:34.842Z,97059.84
2024-05-09T11:16:02.778Z,97061.13
2024-05-09T11:18:35.011Z,97067.41
2024-05-09T11:21:13.395Z,97064.59
2024-05-09T11:23:40.570Z,97051.94
2024-05-09T11:26:07.570Z,97048.91
2024-05-09T11:28:34.555Z,97043.56
2024-05-09T11:31:08.909Z,97049.47
2024-05-09T11:33:38.758Z,97034.94
2024-05-09T11:36:06.401Z,97043.13
2024-05-09T11:38:33.455Z,97040.50
2024-05-09T11:41:00.231Z,97024.66
2024-05-09T11:43:26.793Z,97026.06
2024-05-09T11:45:53.568Z,97011.38
2024-05-09T11:48:20.681Z,97026.78
2024-05-09T11:50:47.298Z,97003.78
2024-05-09T11:53:13.831Z,96998.88
2024-05-09T11:55:40.560Z,97000.53
2024-05-09T11:58:08.256Z,97008.53
2024-05-09T12:00:37.440Z,97004.69
2024-05-09T12:03:05.880Z,96988.50
2024-05-09T12:05:33.651Z,96961.66
2024-05-09T12:08:01.291Z,96948.81
2024-05-09T12:10:33.359Z,96954.44
2024-05-09T12:13:04.181Z,96965.69
2024-05-09T12:15:32.768Z,96958.50
2024-05-09T12:18:02.726Z,96969.84
2024-05-09T12:20:36.825Z,96975.06
2024-05-09T12:23:06.564Z,97000.75
2024-05-09T12:25:33.374Z,96996.16
2024-05-09T12:28:00.577Z,96975.56
2024-05-09T12:30:35.901Z,96941.34
2024-05-09T12:33:07.698Z,96956.47
2024-05-09T12:35:34.742Z,96984.22
2024-05-09T12:38:01.306Z,96979.94
2024-05-09T12:40:35.507Z,96993.88
2024-05-09T12:43:06.983Z,97000.97
2024-05-09T12:45:33.926Z,97001.78
2024-05-09T12:48:00.913Z,96997.94
2024-05-09T12:50:32.608Z,97015.94
2024-05-09T12:53:01.817Z,97016.91
2024-05-09T12:55:33.878Z,97002.34
2024-05-09T12:58:07.904Z,96968.81
2024-05-09T13:00:35.275Z,96909.56
2024-05-09T13:03:02.052Z,96916.94
2024-05-09T13:05:29.329Z,96932.28
2024-05-09T13:07:57.158Z,96966.41
2024-05-09T13:10:31.126Z,97000.06
2024-05-09T13:13:00.769Z,96992.09
2024-05-09T13:15:28.003Z,96972.84
2024-05-09T13:17:57.195Z,96971.41
2024-05-09T13:20:32.200Z,96976.22
2024-05-09T13:23:02.128Z,96961.84
2024-05-09T13:25:29.050Z,96948.66
2024-05-09T13:27:56.852Z,96964.25
2024-05-09T13:30:29.822Z,96956.25
2024-05-09T13:33:06.061Z,96968.34
2024-05-09T13:35:34.666Z,96967.00
2024-05-09T13:38:02.215Z,96945.00
2024-05-09T13:40:33.772Z,96937.81
2024-05-09T13:43:03.395Z,96932.75
2024-05-09T13:45:30.222Z,96925.78
2024-05-09T13:47:57.182Z,96941.00
2024-05-09T13:50:32.906Z,96956.81
2024-05-09T13:53:02.869Z,96946.81
2024-05-09T13:55:29.534Z,96945.56
2024-05-09T13:57:56.668Z,96944.66
2024-05-09T14:00:37.777Z,96953.53
2024-05-09T14:03:10.476Z,96921.31
2024-05-09T14:05:37.787Z,96892.75
2024-05-09T14:08:05.224Z,96864.09
2024-05-09T14:10:32.586Z,96843.94
2024-05-09T14:13:01.250Z,96884.63
2024-05-09T14:15:28.079Z,96907.25
2024-05-09T14:17:55.228Z,96883.66
2024-05-09T14:20:30.390Z,96908.97
2024-05-09T14:22:59.558Z,96891.81
2024-05-09T14:25:32.214Z,96920.47
2024-05-09T14:27:59.740Z,96917.47
2024-05-09T14:30:34.710Z,96918.72
2024-05-09T14:33:05.416Z,96915.97
2024-05-09T14:35:32.650Z,96889.50
2024-05-09T14:37:59.299Z,96862.53
2024-05-09T14:40:36.510Z,96822.31
2024-05-09T14:43:08.319Z,96837.00
2024-05-09T14:45:35.548Z,96869.19
2024-05-09T14:48:03.585Z,96881.88
2024-05-09T14:50:36.052Z,96873.22
2024-05-09T14:53:07.497Z,96889.81
2024-05-09T14:55:37.301Z,96901.13
2024-05-09T14:58:09.614Z,96909.66
2024-05-09T15:00:45.918Z,96910.91
2024-05-09T15:03:16.711Z,96902.25
2024-05-09T15:05:43.426Z,96908.91
2024-05-09T15:08:10.110Z,96907.47
2024-05-09T15:10:37.697Z,96894.78
2024-05-09T15:13:07.205Z,96881.19
2024-05-09T15:15:35.542Z,96875.56
2024-05-09T15:18:07.166Z,96864.16
2024-05-09T15:20:36.783Z,96857.72
2024-05-09T15:23:06.648Z,96851.75
2024-05-09T15:25:34.206Z,96849.69
2024-05-09T15:28:00.946Z,96840.19
2024-05-09T15:30:31.053Z,96865.59
2024-05-09T15:33:00.562Z,96868.75
2024-05-09T15:35:27.431Z,96874.88
2024-05-09T15:37:54.319Z,96879.84
2024-05-09T15:40:30.786Z,96878.75
2024-05-09T15:43:04.786Z,96868.38
2024-05-09T15:45:32.394Z,96854.50
2024-05-09T15:47:59.573Z,96865.97
2024-05-09T15:50:36.069Z,96862.53
2024-05-09T15:53:07.465Z,96867.97
2024-05-09T15:55:34.947Z,96861.44
2024-05-09T15:58:02.950Z,96847.38
2024-05-09T16:00:37.490Z,96849.75
2024-05-09T16:03:07.880Z,96848.53
2024-05-09T16:05:35.004Z,96843.75
2024-05-09T16:08:01.998Z,96852.78
2024-05-09T16:10:32.722Z,96847.94
2024-05-09T16:13:01.909Z,96853.78
2024-05-09T16:15:29.069Z,96858.84
2024-05-09T16:17:56.369Z,96863.25
2024-05-09T16:22:52.894Z,96868.94
2024-05-09T16:25:19.702Z,96867.53
2024-05-09T16:27:46.859Z,96865.72
2024-05-09T16:30:21.040Z,96853.69
2024-05-09T16:32:54.233Z,96845.03
2024-05-09T16:35:20.793Z,96857.09
2024-05-09T16:37:47.780Z,96849.34
2024-05-09T16:40:22.161Z,96853.06
2024-05-09T16:42:56.785Z,96854.13
2024-05-09T16:45:23.402Z,96841.25
2024-05-09T16:47:50.418Z,96849.25
2024-05-09T16:50:25.735Z,96844.63
2024-05-09T16:52:55.701Z,96855.44
2024-05-09T16:55:22.509Z,96852.81
2024-05-09T16:57:49.437Z,96836.88
2024-05-09T17:00:25.229Z,96837.38
2024-05-09T17:02:58.006Z,96841.03
2024-05-09T17:05:25.108Z,96831.81
2024-05-09T17:07:51.782Z,96847.50
2024-05-09T17:10:26.670Z,96856.22
2024-05-09T17:12:59.115Z,96856.03
2024-05-09T17:15:25.717Z,96851.56
2024-05-09T17:17:52.393Z,96857.59
2024-05-09T17:20:29.293Z,96856.81
2024-05-09T17:23:00.380Z,96854.47
2024-05-09T17:25:27.111Z,96861.56
2024-05-09T17:27:54.372Z,96870.19
2024-05-09T17:30:28.845Z,96862.50
2024-05-09T17:33:01.818Z,96866.06
2024-05-09T17:35:28.627Z,96874.09
2024-05-09T17:37:55.328Z,96870.88
2024-05-09T17:40:30.780Z,96871.53
2024-05-09T17:43:01.119Z,96869.28
2024-05-09T17:45:27.779Z,96869.53
2024-05-09T17:47:54.533Z,96870.66
2024-05-09T17:50:27.551Z,96866.97
2024-05-09T17:53:00.599Z,96865.19
2024-05-09T17:55:27.367Z,96863.06
2024-05-09T17:57:54.207Z,96874.00
2024-05-09T18:00:29.501Z,96880.94
2024-05-09T18:03:04.309Z,96878.66
2024-05-09T18:05:31.599Z,96885.31
2024-05-09T18:07:58.463Z,96882.50
2024-05-09T18:10:30.079Z,96891.22
2024-05-09T18:13:02.912Z,96890.69
2024-05-09T18:15:29.435Z,96895.50
2024-05-09T18:17:56.221Z,96892.59
2024-05-09T18:20:32.772Z,96892.19
2024-05-09T18:23:07.562Z,96897.69
2024-05-09T18:25:34.391Z,96898.78
2024-05-09T18:28:04.193Z,96870.28
2024-05-09T18:30:34.562Z,96827.94
2024-05-09T18:33:03.922Z,96636.75
2024-05-09T18:35:30.835Z,96486.63
2024-05-09T18:37:57.378Z,96291.72
2024-05-09T18:40:32.525Z,96103.31
2024-05-09T18:43:03.505Z,95630.41
2024-05-09T18:45:30.973Z,95108.47
2024-05-09T18:47:58.057Z,94658.00
2024-05-09T18:50:33.780Z,94062.31
2024-05-09T18:53:06.714Z,93573.56
2024-05-09T18:55:33.707Z,94116.31
2024-05-09T18:58:00.422Z,94143.66
2024-05-09T19:00:34.337Z,94567.91
2024-05-09T19:03:05.616Z,95469.25
2024-05-09T19:05:35.022Z,96181.69
2024-05-09T19:08:02.683Z,96261.94
2024-05-09T19:10:34.246Z,96505.66
2024-05-09T19:13:06.493Z,96696.47
2024-05-09T19:15:37.045Z,97001.88
2024-05-09T19:18:04.208Z,97119.38
2024-05-09T19:20:34.521Z,97250.38
2024-05-09T19:23:02.616Z,97365.34
2024-05-09T19:25:29.459Z,97455.72
2024-05-09T19:27:56.039Z,97517.84
2024-05-09T19:30:30.392Z,97542.97
2024-05-09T19:33:06.032Z,97552.44
2024-05-09T19:35:32.935Z,97577.22
2024-05-09T19:37:59.548Z,97616.34
2024-05-09T19:40:31.386Z,97657.50
2024-05-09T19:43:00.357Z,97680.19
2024-05-09T19:45:27.204Z,97746.72
2024-05-09T19:47:53.878Z,97748.03
2024-05-09T19:50:27.056Z,97761.00
2024-05-09T19:53:03.074Z,97789.66
2024-05-09T19:55:29.752Z,97842.00
2024-05-09T19:57:56.398Z,97887.22
2024-05-09T20:00:32.296Z,97923.56
2024-05-09T20:03:02.337Z,97978.69
2024-05-09T20:05:31.326Z,98032.81
2024-05-09T20:07:58.253Z,98068.31
2024-05-09T20:10:31.085Z,98090.91
2024-05-09T20:12:59.846Z,98133.41
2024-05-09T20:15:26.597Z,98144.16
2024-05-09T20:17:54.087Z,98175.16
2024-05-09T20:20:32.105Z,98189.25
2024-05-09T20:23:03.972Z,98201.72
2024-05-09T20:25:30.750Z,98226.88
2024-05-09T20:27:57.277Z,98247.13
2024-05-09T20:30:31.243Z,98264.66
2024-05-09T20:33:00.638Z,98294.41
2024-05-09T20:35:30.369Z,98326.66
2024-05-09T20:37:56.899Z,98359.25
2024-05-09T20:40:29.199Z,98383.13
2024-05-09T20:43:00.169Z,98398.66
2024-05-09T20:45:27.143Z,98419.78
2024-05-09T20:47:54.113Z,98438.06
2024-05-09T20:50:28.849Z,98449.97
2024-05-09T20:53:03.344Z,98445.56
2024-05-09T20:55:30.302Z,98455.59
2024-05-09T20:57:57.241Z,98466.66
2024-05-09T21:00:33.791Z,98472.72
2024-05-09T21:03:06.483Z,98479.59
2024-05-09T21:05:34.150Z,98483.69
2024-05-09T21:08:01.252Z,98494.03
2024-05-09T21:10:32.255Z,98498.25
2024-05-09T21:13:01.164Z,98499.66
2024-05-09T21:15:28.027Z,98506.50
2024-05-09T21:17:54.702Z,98509.31
2024-05-09T21:20:28.301Z,98505.38
2024-05-09T21:22:58.200Z,98501.38
2024-05-09T21:25:25.108Z,98492.00
2024-05-09T21:27:51.871Z,98477.13
2024-05-09T21:30:27.750Z,98455.69
2024-05-09T21:33:04.560Z,98421.97
2024-05-09T21:35:31.198Z,98417.38
2024-05-09T21:37:57.701Z,98408.91
2024-05-09T21:40:31.563Z,98396.78
2024-05-09T21:43:01.494Z,98359.88
2024-05-09T21:45:28.524Z,98331.34
2024-05-09T21:47:55.410Z,98292.78
2024-05-09T21:50:28.711Z,98268.72
2024-05-09T21:53:03.325Z,98239.38
2024-05-09T21:55:30.059Z,98224.19
2024-05-09T21:57:56.929Z,98187.47
2024-05-09T22:00:32.069Z,98135.69
2024-05-09T22:03:03.491Z,98069.31
2024-05-09T22:05:30.857Z,98030.88
2024-05-09T22:07:57.550Z,97974.66
2024-05-09T22:10:30.586Z,97899.47
2024-05-09T22:13:01.275Z,97815.56
2024-05-09T22:15:27.972Z,97760.88
2024-05-09T22:17:57.114Z,97665.31
2024-05-09T22:20:33.485Z,97567.31
2024-05-09T22:23:04.069Z,97448.19
2024-05-09T22:25:31.853Z,97403.75
2024-05-09T22:27:59.137Z,97327.44
2024-05-09T22:30:34.200Z,97251.09
2024-05-09T22:33:05.192Z,97144.75
2024-05-09T22:35:31.978Z,97021.88
2024-05-09T22:37:58.702Z,96918.19
2024-05-09T22:40:37.879Z,96820.78
2024-05-09T22:43:12.367Z,96706.78
2024-05-09T22:45:39.582Z,96670.44
2024-05-09T22:48:07.536Z,96664.22
2024-05-09T22:50:34.319Z,96664.28
2024-05-09T22:53:01.342Z,96619.03
2024-05-09T22:55:27.935Z,96564.63
2024-05-09T22:57:54.521Z,96492.22
2024-05-09T23:00:29.326Z,96423.94
2024-05-09T23:03:02.476Z,96343.69
2024-05-09T23:05:30.784Z,96296.66
2024-05-09T23:07:57.681Z,96234.19
2024-05-09T23:10:32.052Z,96140.47
2024-05-09T23:13:03.794Z,96032.38
2024-05-09T23:15:30.605Z,95970.22
2024-05-09T23:17:58.125Z,95911.69
2024-05-09T23:20:33.841Z,95879.97
2024-05-09T23:23:08.111Z,95872.56
2024-05-09T23:25:35.284Z,95873.16
2024-05-09T23:28:02.429Z,95887.16
2024-05-09T23:30:36.653Z,95894.81
2024-05-09T23:33:07.207Z,95880.22
2024-05-09T23:35:33.947Z,95848.22
2024-05-09T23:38:00.466Z,95807.81
2024-05-09T23:40:37.354Z,95788.13
2024-05-09T23:43:07.481Z,95779.41
2024-05-09T23:45:34.804Z,95766.22
2024-05-09T23:48:01.828Z,95710.88
2024-05-09T23:50:35.530Z,95660.97
2024-05-09T23:53:06.324Z,95611.28
2024-05-09T23:55:33.780Z,95573.16
2024-05-09T23:58:00.659Z,95554.69
